Conroe's Hourly Summary for Sunday, July 8, 2018
Hour Temp
(f)
RH
(%)
Solar Rad.
(MJ/m2)
Rainfall
(in)
Wind
(mph)
7/8/2018 12:00 AM 72 92 0 0 0.1
7/8/2018 1:00 AM 72 92 0 0 0
7/8/2018 2:00 AM 71 93 0 0 0
7/8/2018 3:00 AM 71 93 0 0 0
7/8/2018 4:00 AM 71 93 0 0 0
7/8/2018 5:00 AM 70 93 0 0 0
7/8/2018 6:00 AM 70 93 0.04 0 0.01
7/8/2018 7:00 AM 72 87 0.39 0 0.67
7/8/2018 8:00 AM 75 77 0.83 0 1.39
7/8/2018 9:00 AM 80 66 1.74 0 0.76
7/8/2018 10:00 AM 82 59 2.28 0 2.36
7/8/2018 11:00 AM 83 57 2.28 0 2.86
7/8/2018 12:00 PM 84 52 2.55 0 2.89
7/8/2018 1:00 PM 86 48 2.87 0 4.32
7/8/2018 2:00 PM 81 63 2.52 0 4.16
7/8/2018 3:00 PM 79 69 1.21 0 2.16
7/8/2018 4:00 PM 80 67 0.95 0 0.78
7/8/2018 5:00 PM 80 67 0.68 0 0.41
7/8/2018 6:00 PM 79 70 0.45 0 0.6
7/8/2018 7:00 PM 78 74 0.16 0 0.22
7/8/2018 8:00 PM 76 78 0.01 0 0.19
7/8/2018 9:00 PM 75 83 0 0 0.26
7/8/2018 10:00 PM 74 85 0 0 0.12
7/8/2018 11:00 PM 74 88 0 0 0
Data Summary 76 76 18.96 0.00 1.01